createdAt,value
2023-05-05T00:00:32.329Z,12
2023-05-05T00:01:39.320Z,12
2023-05-05T00:02:46.355Z,12
2023-05-05T00:03:53.528Z,12
2023-05-05T00:05:00.434Z,12
2023-05-05T00:06:07.451Z,11
2023-05-05T00:07:14.477Z,12
2023-05-05T00:08:21.491Z,12
2023-05-05T00:09:28.467Z,12
2023-05-05T00:10:35.393Z,11
2023-05-05T00:11:43.288Z,12
2023-05-05T00:12:50.236Z,12
2023-05-05T00:13:57.147Z,11
2023-05-05T00:15:04.908Z,11
2023-05-05T00:16:12.027Z,12
2023-05-05T00:17:19.050Z,12
2023-05-05T00:18:25.966Z,11
2023-05-05T00:19:32.943Z,12
2023-05-05T00:20:39.945Z,12
2023-05-05T00:21:48.691Z,12
2023-05-05T00:22:55.631Z,12
2023-05-05T00:24:02.629Z,11
2023-05-05T00:25:09.663Z,12
2023-05-05T00:26:16.622Z,12
2023-05-05T00:27:23.634Z,12
2023-05-05T00:28:30.694Z,12
2023-05-05T00:29:37.712Z,11
2023-05-05T00:30:44.708Z,12
2023-05-05T00:31:51.741Z,12
2023-05-05T00:32:58.767Z,11
2023-05-05T00:34:05.687Z,11
2023-05-05T00:35:19.426Z,11
2023-05-05T00:36:26.480Z,12
2023-05-05T00:37:33.451Z,14
2023-05-05T00:38:40.430Z,16
2023-05-05T00:39:47.379Z,15
2023-05-05T00:40:54.322Z,15
2023-05-05T00:42:01.244Z,15
2023-05-05T00:43:08.213Z,14
2023-05-05T00:44:15.349Z,14
2023-05-05T00:45:22.450Z,14
2023-05-05T00:46:29.534Z,14
2023-05-05T00:47:36.470Z,14
2023-05-05T00:48:43.465Z,13
2023-05-05T00:49:50.729Z,14
2023-05-05T00:50:57.765Z,14
2023-05-05T00:52:04.700Z,14
2023-05-05T00:53:11.652Z,13
2023-05-05T00:54:18.693Z,13
2023-05-05T00:55:25.653Z,12
2023-05-05T00:56:32.691Z,11
2023-05-05T00:57:39.610Z,12
2023-05-05T00:58:46.577Z,11
2023-05-05T00:59:53.602Z,11
2023-05-05T01:01:00.683Z,11
2023-05-05T01:02:08.661Z,11
2023-05-05T01:03:16.524Z,12
2023-05-05T01:04:23.420Z,11
2023-05-05T01:05:30.388Z,11
2023-05-05T01:06:42.607Z,11
2023-05-05T01:07:54.775Z,12
2023-05-05T01:09:09.947Z,12
2023-05-05T01:10:27.522Z,11
2023-05-05T01:11:39.426Z,11
2023-05-05T01:12:54.711Z,11
2023-05-05T01:14:12.086Z,11
2023-05-05T01:15:19.075Z,10
2023-05-05T01:16:36.463Z,11
2023-05-05T01:17:43.635Z,11
2023-05-05T01:18:55.730Z,10
2023-05-05T01:20:14.092Z,10
2023-05-05T01:21:24.013Z,10
2023-05-05T01:22:33.763Z,10
2023-05-05T01:23:46.127Z,10
2023-05-05T01:25:01.275Z,9
2023-05-05T01:26:16.571Z,10
2023-05-05T01:27:34.010Z,10
2023-05-05T01:28:51.248Z,10
2023-05-05T01:30:08.806Z,10
2023-05-05T01:31:18.332Z,10
2023-05-05T01:32:35.583Z,10
2023-05-05T01:33:42.555Z,9
2023-05-05T01:34:49.474Z,9
2023-05-05T01:36:01.663Z,9
2023-05-05T01:37:11.478Z,8
2023-05-05T01:38:18.370Z,8
2023-05-05T01:39:25.312Z,8
2023-05-05T01:40:32.210Z,8
2023-05-05T01:41:41.796Z,8
2023-05-05T01:42:48.712Z,19
2023-05-05T01:43:55.620Z,25
2023-05-05T01:45:03.455Z,27
2023-05-05T01:46:10.705Z,27
2023-05-05T01:47:17.630Z,25
2023-05-05T01:48:24.581Z,25
2023-05-05T01:49:31.463Z,18
2023-05-05T01:50:38.440Z,18
2023-05-05T01:51:45.431Z,15
2023-05-05T01:52:52.374Z,13
2023-05-05T01:53:59.297Z,12
2023-05-05T01:55:06.205Z,12
2023-05-05T01:56:13.152Z,11
2023-05-05T01:57:20.103Z,11
2023-05-05T01:58:27.125Z,10
2023-05-05T01:59:34.206Z,10
2023-05-05T02:00:41.127Z,10
2023-05-05T02:01:48.166Z,10
2023-05-05T02:02:55.257Z,10
2023-05-05T02:04:02.225Z,9
2023-05-05T02:05:09.396Z,10
2023-05-05T02:06:16.296Z,9
2023-05-05T02:07:23.422Z,10
2023-05-05T02:08:30.459Z,10
2023-05-05T02:09:37.447Z,10
2023-05-05T02:10:45.464Z,10
2023-05-05T02:11:52.463Z,9
2023-05-05T02:13:02.806Z,9
2023-05-05T02:14:09.731Z,10
2023-05-05T02:15:16.705Z,9
2023-05-05T02:16:23.860Z,9
2023-05-05T02:17:30.801Z,9
2023-05-05T02:18:37.846Z,9
2023-05-05T02:19:44.906Z,10
2023-05-05T02:20:51.906Z,10
2023-05-05T02:21:58.944Z,11
2023-05-05T02:23:05.901Z,10
2023-05-05T02:24:12.829Z,10
2023-05-05T02:25:19.772Z,11
2023-05-05T02:26:26.742Z,10
2023-05-05T02:27:35.586Z,11
2023-05-05T02:28:42.526Z,11
2023-05-05T02:29:52.057Z,10
2023-05-05T02:31:01.830Z,10
2023-05-05T02:32:08.863Z,11
2023-05-05T02:33:24.818Z,10
2023-05-05T02:34:31.782Z,11
2023-05-05T02:35:38.732Z,11
2023-05-05T02:36:45.684Z,10
2023-05-05T02:37:52.638Z,10
2023-05-05T02:38:59.673Z,9
2023-05-05T02:40:15.792Z,9
2023-05-05T02:41:22.796Z,8
2023-05-05T02:42:29.861Z,8
2023-05-05T02:43:39.518Z,8
2023-05-05T02:44:46.621Z,9
2023-05-05T02:45:53.669Z,9
2023-05-05T02:47:00.710Z,9
2023-05-05T02:48:10.670Z,9
2023-05-05T02:49:17.782Z,9
2023-05-05T02:50:24.899Z,10
2023-05-05T02:51:31.866Z,9
2023-05-05T02:52:38.912Z,9
2023-05-05T02:53:45.950Z,9
2023-05-05T02:54:52.973Z,9
2023-05-05T02:55:59.995Z,9
2023-05-05T02:57:14.922Z,10
2023-05-05T02:58:21.829Z,14
2023-05-05T02:59:31.524Z,14
2023-05-05T03:00:46.819Z,16
2023-05-05T03:01:53.859Z,17
2023-05-05T03:03:03.493Z,18
2023-05-05T03:04:13.387Z,19
2023-05-05T03:05:25.503Z,15
2023-05-05T03:06:32.477Z,16
2023-05-05T03:07:44.675Z,17
2023-05-05T03:08:56.894Z,17
2023-05-05T03:10:09.205Z,21
2023-05-05T03:11:16.047Z,21
2023-05-05T03:12:25.562Z,16
2023-05-05T03:13:32.561Z,13
2023-05-05T03:14:39.637Z,13
2023-05-05T03:15:46.569Z,10
2023-05-05T03:16:53.533Z,11
2023-05-05T03:18:00.506Z,11
2023-05-05T03:19:07.453Z,10
2023-05-05T03:20:14.388Z,12
2023-05-05T03:21:21.314Z,11
2023-05-05T03:22:28.318Z,11
2023-05-05T03:23:35.265Z,11
2023-05-05T03:24:42.208Z,11
2023-05-05T03:25:49.102Z,10
2023-05-05T03:26:56.004Z,10
2023-05-05T03:28:02.943Z,10
2023-05-05T03:29:09.878Z,10
2023-05-05T03:30:16.819Z,10
2023-05-05T03:31:24.881Z,10
2023-05-05T03:32:31.817Z,11
2023-05-05T03:33:38.834Z,10
2023-05-05T03:34:45.866Z,10
2023-05-05T03:35:52.892Z,10
2023-05-05T03:36:59.911Z,10
2023-05-05T03:38:06.966Z,10
2023-05-05T03:39:13.850Z,10
2023-05-05T03:40:23.504Z,11
2023-05-05T03:41:27.831Z,10
2023-05-05T03:42:34.803Z,11
2023-05-05T03:43:41.803Z,10
2023-05-05T03:44:48.862Z,11
2023-05-05T03:45:55.922Z,11
2023-05-05T03:47:03.782Z,11
2023-05-05T03:48:10.729Z,10
2023-05-05T03:49:17.796Z,10
2023-05-05T03:50:24.856Z,11
2023-05-05T03:51:31.853Z,10
2023-05-05T03:52:38.860Z,11
2023-05-05T03:53:45.737Z,11
2023-05-05T03:54:52.615Z,11
2023-05-05T03:55:59.548Z,11
2023-05-05T03:57:06.601Z,11
2023-05-05T03:58:13.558Z,10
2023-05-05T03:59:20.540Z,10
2023-05-05T04:00:27.506Z,10
2023-05-05T04:01:34.414Z,11
2023-05-05T04:02:41.381Z,11
2023-05-05T04:03:48.457Z,11
2023-05-05T04:04:55.338Z,11
2023-05-05T04:06:02.414Z,11
2023-05-05T04:07:09.517Z,10
2023-05-05T04:08:16.622Z,10
2023-05-05T04:09:23.577Z,10
2023-05-05T04:10:30.748Z,12
2023-05-05T04:11:37.735Z,11
2023-05-05T04:12:45.454Z,12
2023-05-05T04:13:52.591Z,11
2023-05-05T04:14:59.595Z,12
2023-05-05T04:16:06.676Z,11
2023-05-05T04:17:13.692Z,11
2023-05-05T04:18:20.678Z,11
2023-05-05T04:19:27.597Z,12
2023-05-05T04:20:37.322Z,11
2023-05-05T04:21:44.349Z,11
2023-05-05T04:22:52.576Z,11
2023-05-05T04:23:58.189Z,11
2023-05-05T04:25:05.125Z,11
2023-05-05T04:26:12.245Z,11
2023-05-05T04:27:19.259Z,11
2023-05-05T04:28:26.307Z,11
2023-05-05T04:29:33.251Z,11
2023-05-05T04:30:40.293Z,11
2023-05-05T04:31:47.258Z,10
2023-05-05T04:32:54.191Z,11
2023-05-05T04:34:01.147Z,11
2023-05-05T04:35:08.171Z,10
2023-05-05T04:36:15.253Z,11
2023-05-05T04:37:22.297Z,11
2023-05-05T04:38:29.271Z,11
2023-05-05T04:39:36.207Z,11
2023-05-05T04:40:43.202Z,11
2023-05-05T04:41:50.167Z,11
2023-05-05T04:42:57.152Z,10
2023-05-05T04:44:04.336Z,11
2023-05-05T04:45:12.552Z,11
2023-05-05T04:46:19.647Z,11
2023-05-05T04:47:26.798Z,10
2023-05-05T04:48:33.735Z,10
2023-05-05T04:49:40.841Z,11
2023-05-05T04:50:47.836Z,10
2023-05-05T04:51:54.815Z,10
2023-05-05T04:53:01.875Z,12
2023-05-05T04:54:08.930Z,12
2023-05-05T04:55:16.539Z,12
2023-05-05T04:56:24.108Z,12
2023-05-05T04:57:34.666Z,12
2023-05-05T04:58:41.802Z,12
2023-05-05T04:59:49.043Z,12
2023-05-05T05:00:56.090Z,13
2023-05-05T05:02:06.835Z,12
2023-05-05T05:03:13.954Z,13
2023-05-05T05:04:20.924Z,13
2023-05-05T05:05:28.170Z,12
2023-05-05T05:06:35.216Z,11
2023-05-05T05:07:42.206Z,10
2023-05-05T05:08:49.289Z,10
2023-05-05T05:09:56.296Z,10
2023-05-05T05:11:03.377Z,10
2023-05-05T05:12:10.361Z,10
2023-05-05T05:13:17.320Z,10
2023-05-05T05:14:24.147Z,10
2023-05-05T05:15:31.051Z,11
2023-05-05T05:16:38.066Z,11
2023-05-05T05:17:44.964Z,11
2023-05-05T05:18:51.974Z,11
2023-05-05T05:19:58.894Z,11
2023-05-05T05:21:05.854Z,10
2023-05-05T05:22:12.834Z,11
2023-05-05T05:23:19.808Z,11
2023-05-05T05:24:26.763Z,10
2023-05-05T05:25:33.685Z,11
2023-05-05T05:26:40.623Z,11
2023-05-05T05:27:52.433Z,12
2023-05-05T05:28:54.572Z,11
2023-05-05T05:30:01.682Z,12
2023-05-05T05:31:08.975Z,11
2023-05-05T05:32:16.081Z,11
2023-05-05T05:33:23.036Z,11
2023-05-05T05:34:29.978Z,11
2023-05-05T05:35:36.991Z,10
2023-05-05T05:36:43.956Z,9
2023-05-05T05:37:50.820Z,10
2023-05-05T05:38:57.703Z,10
2023-05-05T05:40:04.605Z,10
2023-05-05T05:41:11.963Z,10
2023-05-05T05:42:19.132Z,11
2023-05-05T05:43:26.135Z,11
2023-05-05T05:44:32.994Z,11
2023-05-05T05:45:39.983Z,12
2023-05-05T05:46:47.043Z,12
2023-05-05T05:47:54.015Z,13
2023-05-05T05:49:00.945Z,12
2023-05-05T05:50:08.271Z,12
2023-05-05T05:51:15.016Z,13
2023-05-05T05:52:21.976Z,12
2023-05-05T05:53:29.006Z,11
2023-05-05T05:54:36.048Z,13
2023-05-05T05:55:43.096Z,13
2023-05-05T05:56:50.115Z,11
2023-05-05T05:57:57.015Z,12
2023-05-05T05:59:03.981Z,12
2023-05-05T06:00:13.777Z,12
2023-05-05T06:01:21.010Z,12
2023-05-05T06:02:28.123Z,12
2023-05-05T06:03:35.253Z,12
2023-05-05T06:04:42.126Z,12
2023-05-05T06:05:49.024Z,11
2023-05-05T06:06:55.925Z,12
2023-05-05T06:08:02.861Z,12
2023-05-05T06:09:09.827Z,11
2023-05-05T06:10:27.131Z,11
2023-05-05T06:11:23.719Z,12
2023-05-05T06:12:30.666Z,11
2023-05-05T06:13:37.587Z,12
2023-05-05T06:14:44.572Z,12
2023-05-05T06:15:51.507Z,12
2023-05-05T06:16:58.426Z,11
2023-05-05T06:18:05.437Z,11
2023-05-05T06:19:12.448Z,11
2023-05-05T06:20:19.414Z,12
2023-05-05T06:21:26.402Z,11
2023-05-05T06:22:33.440Z,11
2023-05-05T06:23:40.522Z,11
2023-05-05T06:24:47.494Z,11
2023-05-05T06:25:54.510Z,10
2023-05-05T06:27:01.404Z,10
2023-05-05T06:28:08.546Z,11
2023-05-05T06:29:15.521Z,11
2023-05-05T06:30:22.562Z,11
2023-05-05T06:31:29.525Z,11
2023-05-05T06:32:36.463Z,11
2023-05-05T06:33:43.387Z,12
2023-05-05T06:34:50.288Z,11
2023-05-05T06:35:57.139Z,11
2023-05-05T06:37:04.113Z,11
2023-05-05T06:38:11.020Z,11
2023-05-05T06:39:17.923Z,11
2023-05-05T06:40:24.986Z,10
2023-05-05T06:41:31.985Z,11
2023-05-05T06:42:38.929Z,11
2023-05-05T06:43:45.842Z,11
2023-05-05T06:44:52.927Z,10
2023-05-05T06:46:00.112Z,10
2023-05-05T06:47:07.164Z,11
2023-05-05T06:48:14.026Z,9
2023-05-05T06:49:20.944Z,10
2023-05-05T06:50:27.874Z,10
2023-05-05T06:51:34.747Z,10
2023-05-05T06:52:41.718Z,9
2023-05-05T06:53:49.779Z,9
2023-05-05T06:54:56.648Z,9
2023-05-05T06:56:03.552Z,9
2023-05-05T06:57:11.760Z,9
2023-05-05T06:58:22.796Z,9
2023-05-05T06:59:29.692Z,9
2023-05-05T07:00:36.584Z,8
2023-05-05T07:01:43.553Z,9
2023-05-05T07:02:50.462Z,8
2023-05-05T07:03:57.517Z,8
2023-05-05T07:05:04.550Z,8
2023-05-05T07:06:11.509Z,8
2023-05-05T07:07:18.457Z,9
2023-05-05T07:08:25.425Z,8
2023-05-05T07:09:32.378Z,8
2023-05-05T07:10:39.222Z,9
2023-05-05T07:11:46.146Z,8
2023-05-05T07:12:53.147Z,8
2023-05-05T07:14:00.369Z,8
2023-05-05T07:15:12.370Z,8
2023-05-05T07:16:14.205Z,8
2023-05-05T07:17:21.250Z,8
2023-05-05T07:18:28.062Z,8
2023-05-05T07:19:35.049Z,7
2023-05-05T07:20:41.928Z,7
2023-05-05T07:21:48.786Z,6
2023-05-05T07:22:55.957Z,6
2023-05-05T07:24:02.790Z,6
2023-05-05T07:25:09.878Z,7
2023-05-05T07:26:16.754Z,7
2023-05-05T07:27:23.627Z,7
2023-05-05T07:28:30.536Z,7
2023-05-05T07:29:37.545Z,7
2023-05-05T07:30:44.622Z,6
2023-05-05T07:31:51.631Z,6
2023-05-05T07:32:58.885Z,6
2023-05-05T07:34:05.708Z,6
2023-05-05T07:35:12.613Z,5
2023-05-05T07:36:19.598Z,5
2023-05-05T07:37:26.494Z,5
2023-05-05T07:38:33.353Z,5
2023-05-05T07:39:40.228Z,6
2023-05-05T07:40:47.101Z,6
2023-05-05T07:41:54.004Z,5
2023-05-05T07:43:00.844Z,6
2023-05-05T07:44:07.855Z,6
2023-05-05T07:45:14.810Z,5
2023-05-05T07:46:21.933Z,5
2023-05-05T07:47:28.974Z,5
2023-05-05T07:48:35.960Z,5
2023-05-05T07:50:49.609Z,5
2023-05-05T07:51:56.498Z,4
2023-05-05T07:53:13.441Z,5
2023-05-05T07:54:10.414Z,4
2023-05-05T07:55:17.407Z,5
2023-05-05T07:56:24.452Z,5
2023-05-05T07:57:31.472Z,5
2023-05-05T07:58:38.404Z,5
2023-05-05T07:59:45.307Z,4
2023-05-05T08:00:52.349Z,4
2023-05-05T08:01:59.245Z,4
2023-05-05T08:03:07.149Z,4
2023-05-05T08:04:13.566Z,4
2023-05-05T08:05:20.072Z,5
2023-05-05T08:06:26.910Z,5
2023-05-05T08:07:33.797Z,4
2023-05-05T08:08:40.847Z,5
2023-05-05T08:09:47.862Z,4
2023-05-05T08:10:54.956Z,5
2023-05-05T08:12:02.012Z,5
2023-05-05T08:13:08.958Z,5
2023-05-05T08:14:15.869Z,5
2023-05-05T08:15:22.918Z,4
2023-05-05T08:16:29.876Z,5
2023-05-05T08:17:36.739Z,5
2023-05-05T08:18:51.690Z,5
2023-05-05T08:19:58.650Z,5
2023-05-05T08:21:05.443Z,5
2023-05-05T08:22:12.477Z,5
2023-05-05T08:23:19.402Z,5
2023-05-05T08:24:26.336Z,5
2023-05-05T08:25:33.360Z,5
2023-05-05T08:26:40.333Z,5
2023-05-05T08:27:48.719Z,4
2023-05-05T08:28:59.877Z,4
2023-05-05T08:30:06.931Z,5
2023-05-05T08:31:14.038Z,5
2023-05-05T08:32:20.972Z,5
2023-05-05T08:33:28.022Z,4
2023-05-05T08:34:34.912Z,4
2023-05-05T08:35:42.208Z,4
2023-05-05T08:36:49.029Z,4
2023-05-05T08:37:57.321Z,4
2023-05-05T08:39:02.867Z,4
2023-05-05T08:40:09.800Z,4
2023-05-05T08:41:19.630Z,4
2023-05-05T08:42:35.945Z,4
2023-05-05T08:43:33.538Z,4
2023-05-05T08:44:40.590Z,4
2023-05-05T08:45:47.564Z,4
2023-05-05T08:46:57.517Z,4
2023-05-05T08:48:04.525Z,4
2023-05-05T08:49:11.372Z,4
2023-05-05T08:50:18.350Z,4
2023-05-05T08:51:25.579Z,4
2023-05-05T08:52:32.286Z,3
2023-05-05T08:53:41.983Z,3
2023-05-05T08:54:54.150Z,4
2023-05-05T08:56:01.068Z,4
2023-05-05T08:57:08.207Z,4
2023-05-05T08:58:15.266Z,4
2023-05-05T08:59:22.222Z,4
2023-05-05T09:00:29.246Z,4
2023-05-05T09:01:36.439Z,4
2023-05-05T09:02:43.474Z,4
2023-05-05T09:03:50.572Z,4
2023-05-05T09:04:57.435Z,4
2023-05-05T09:06:04.473Z,4
2023-05-05T09:07:11.515Z,4
2023-05-05T09:08:18.325Z,4
2023-05-05T09:09:25.272Z,4
2023-05-05T09:10:32.229Z,4
2023-05-05T09:11:39.317Z,4
2023-05-05T09:12:46.277Z,4
2023-05-05T09:15:30.936Z,4
2023-05-05T09:16:37.921Z,4
2023-05-05T09:17:44.815Z,4
2023-05-05T09:18:51.784Z,4
2023-05-05T09:20:03.920Z,3
2023-05-05T09:21:11.002Z,4
2023-05-05T09:22:23.276Z,3
2023-05-05T09:23:35.262Z,4
2023-05-05T09:24:42.397Z,4
2023-05-05T09:25:57.522Z,4
2023-05-05T09:27:07.040Z,4
2023-05-05T09:28:13.962Z,4
2023-05-05T09:29:20.847Z,4
2023-05-05T09:30:27.760Z,3
2023-05-05T09:31:34.816Z,4
2023-05-05T09:32:41.740Z,4
2023-05-05T09:33:48.577Z,4
2023-05-05T09:34:55.451Z,4
2023-05-05T09:36:02.357Z,3
2023-05-05T09:37:09.458Z,4
2023-05-05T09:38:16.605Z,3
2023-05-05T09:39:23.479Z,4
2023-05-05T09:40:30.387Z,3
2023-05-05T09:41:37.371Z,3
2023-05-05T09:42:44.346Z,3
2023-05-05T09:43:51.231Z,3
2023-05-05T09:44:59.876Z,3
2023-05-05T09:46:05.096Z,3
2023-05-05T09:47:18.402Z,3
2023-05-05T09:48:18.985Z,3
2023-05-05T09:49:28.927Z,3
2023-05-05T09:50:35.830Z,3
2023-05-05T09:51:45.559Z,3
2023-05-05T09:52:52.535Z,3
2023-05-05T09:54:02.573Z,3
2023-05-05T09:55:09.517Z,3
2023-05-05T09:56:21.610Z,3
2023-05-05T09:57:28.545Z,4
2023-05-05T09:58:35.512Z,4
2023-05-05T09:59:42.373Z,3
2023-05-05T10:00:54.476Z,3
2023-05-05T10:02:01.447Z,3
2023-05-05T10:03:13.535Z,3
2023-05-05T10:04:20.684Z,4
2023-05-05T10:05:27.640Z,3
2023-05-05T10:06:34.747Z,3
2023-05-05T10:07:46.857Z,3
2023-05-05T10:08:53.760Z,3
2023-05-05T10:10:03.768Z,3
2023-05-05T10:11:10.642Z,3
2023-05-05T10:12:17.614Z,3
2023-05-05T10:13:24.551Z,2
2023-05-05T10:14:31.485Z,3
2023-05-05T10:15:38.326Z,3
2023-05-05T10:16:45.482Z,3
2023-05-05T10:18:05.755Z,3
2023-05-05T10:18:59.291Z,3
2023-05-05T10:20:06.438Z,3
2023-05-05T10:21:13.216Z,3
2023-05-05T10:22:20.136Z,3
2023-05-05T10:23:27.032Z,3
2023-05-05T10:24:39.131Z,3
2023-05-05T10:25:46.047Z,3
2023-05-05T10:27:00.714Z,3
2023-05-05T10:28:07.700Z,3
2023-05-05T10:29:14.615Z,3
2023-05-05T10:30:29.755Z,4
2023-05-05T10:31:36.688Z,3
2023-05-05T10:32:57.226Z,3
2023-05-05T10:33:58.392Z,3
2023-05-05T10:35:11.063Z,3
2023-05-05T10:36:23.465Z,3
2023-05-05T10:37:30.636Z,3
2023-05-05T10:38:37.511Z,3
2023-05-05T10:39:44.429Z,3
2023-05-05T10:40:51.476Z,3
2023-05-05T10:41:58.298Z,3
2023-05-05T10:43:05.271Z,3
2023-05-05T10:44:12.258Z,3
2023-05-05T10:45:20.074Z,3
2023-05-05T10:46:26.983Z,3
2023-05-05T10:47:33.919Z,3
2023-05-05T10:48:40.809Z,3
2023-05-05T10:49:55.711Z,3
2023-05-05T10:51:10.513Z,3
2023-05-05T10:52:27.743Z,3
2023-05-05T10:53:39.891Z,3
2023-05-05T10:54:52.039Z,3
2023-05-05T10:55:59.165Z,3
2023-05-05T10:57:11.016Z,3
2023-05-05T10:58:17.946Z,3
2023-05-05T10:59:35.268Z,3
2023-05-05T11:00:42.142Z,3
2023-05-05T11:01:51.660Z,3
2023-05-05T11:02:58.569Z,3
2023-05-05T11:04:10.670Z,3
2023-05-05T11:05:22.858Z,3
2023-05-05T11:06:29.818Z,3
2023-05-05T11:07:36.990Z,3
2023-05-05T11:08:43.898Z,3
2023-05-05T11:09:50.775Z,3
2023-05-05T11:11:00.708Z,3
2023-05-05T11:12:07.756Z,3
2023-05-05T11:13:14.591Z,3
2023-05-05T11:14:21.451Z,3
2023-05-05T11:15:28.431Z,3
2023-05-05T11:16:35.588Z,3
2023-05-05T11:17:47.643Z,4
2023-05-05T11:18:54.608Z,3
2023-05-05T11:20:01.769Z,3
2023-05-05T11:21:09.266Z,3
2023-05-05T11:22:19.271Z,3
2023-05-05T11:23:26.250Z,3
2023-05-05T11:24:33.145Z,3
2023-05-05T11:25:40.047Z,3
2023-05-05T11:26:46.900Z,3
2023-05-05T11:27:56.738Z,3
2023-05-05T11:29:11.507Z,3
2023-05-05T11:30:18.381Z,3
2023-05-05T11:31:25.378Z,3
2023-05-05T11:32:32.341Z,3
2023-05-05T11:33:39.200Z,3
2023-05-05T11:34:46.142Z,3
2023-05-05T11:35:53.048Z,3
2023-05-05T11:37:00.063Z,3
2023-05-05T11:38:06.978Z,3
2023-05-05T11:39:13.931Z,3
2023-05-05T11:40:26.234Z,3
2023-05-05T11:41:33.149Z,3
2023-05-05T11:42:43.205Z,3
2023-05-05T11:43:50.371Z,3
2023-05-05T11:45:07.499Z,3
2023-05-05T11:46:24.867Z,3
2023-05-05T11:47:31.897Z,3
2023-05-05T11:48:38.867Z,3
2023-05-05T11:49:51.061Z,3
2023-05-05T11:50:58.024Z,3
2023-05-05T11:52:04.916Z,3
2023-05-05T11:53:14.660Z,3
2023-05-05T11:54:21.526Z,3
2023-05-05T11:55:28.522Z,3
2023-05-05T11:56:35.537Z,3
2023-05-05T11:57:42.354Z,3
2023-05-05T11:58:49.270Z,3
2023-05-05T12:00:06.682Z,3
2023-05-05T12:01:13.902Z,3
2023-05-05T12:02:20.843Z,3
2023-05-05T12:03:27.859Z,3
2023-05-05T12:04:37.294Z,3
2023-05-05T12:05:44.265Z,3
2023-05-05T12:06:51.164Z,3
2023-05-05T12:07:58.159Z,3
2023-05-05T12:09:05.188Z,3
2023-05-05T12:10:20.061Z,3
2023-05-05T12:11:27.110Z,3
2023-05-05T12:12:33.934Z,3
2023-05-05T12:13:40.891Z,3
2023-05-05T12:14:47.820Z,2
2023-05-05T12:15:57.907Z,3
2023-05-05T12:17:12.584Z,3
2023-05-05T12:18:19.483Z,2
2023-05-05T12:19:26.439Z,3
2023-05-05T12:20:33.595Z,3
2023-05-05T12:21:40.511Z,3
2023-05-05T12:22:47.376Z,3
2023-05-05T12:23:54.376Z,3
2023-05-05T12:25:01.465Z,3
2023-05-05T12:26:08.600Z,3
2023-05-05T12:27:25.905Z,3
2023-05-05T12:28:32.866Z,3
2023-05-05T12:29:47.993Z,3
2023-05-05T12:30:55.273Z,2
2023-05-05T12:32:02.442Z,2
2023-05-05T12:33:09.289Z,2
2023-05-05T12:34:16.212Z,2
2023-05-05T12:35:23.215Z,2
2023-05-05T12:36:30.523Z,2
2023-05-05T12:37:37.037Z,3
2023-05-05T12:38:43.993Z,2
2023-05-05T12:39:50.949Z,2
2023-05-05T12:41:00.684Z,2
2023-05-05T12:42:08.003Z,2
2023-05-05T12:43:14.942Z,2
2023-05-05T12:44:29.928Z,2
2023-05-05T12:46:09.618Z,2
2023-05-05T12:47:16.689Z,2
2023-05-05T12:48:33.808Z,2
2023-05-05T12:49:40.858Z,2
2023-05-05T12:50:53.890Z,2
2023-05-05T12:52:11.284Z,2
2023-05-05T12:53:18.238Z,2
2023-05-05T12:54:25.235Z,2
2023-05-05T12:55:35.222Z,2
2023-05-05T12:56:42.231Z,2
2023-05-05T12:57:51.684Z,2
2023-05-05T12:59:04.434Z,2
2023-05-05T13:00:16.144Z,2
2023-05-05T13:01:23.425Z,2
2023-05-05T13:02:30.457Z,4
2023-05-05T13:03:37.417Z,4
2023-05-05T13:04:44.395Z,3
2023-05-05T13:05:51.356Z,2
2023-05-05T13:06:58.357Z,2
2023-05-05T13:08:10.522Z,2
2023-05-05T13:09:17.576Z,2
2023-05-05T13:10:27.588Z,2
2023-05-05T13:11:34.613Z,2
2023-05-05T13:12:41.650Z,2
2023-05-05T13:13:48.529Z,2
2023-05-05T13:14:55.475Z,2
2023-05-05T13:16:02.462Z,2
2023-05-05T13:17:09.440Z,2
2023-05-05T13:18:16.402Z,2
2023-05-05T13:19:23.384Z,2
2023-05-05T13:20:30.402Z,2
2023-05-05T13:21:37.401Z,2
2023-05-05T13:22:44.395Z,2
2023-05-05T13:23:51.386Z,2
2023-05-05T13:24:58.380Z,2
2023-05-05T13:26:05.398Z,2
2023-05-05T13:27:12.420Z,2
2023-05-05T13:28:19.455Z,2
2023-05-05T13:29:30.580Z,2
2023-05-05T13:30:33.592Z,2
2023-05-05T13:31:40.854Z,2
2023-05-05T13:32:47.627Z,2
2023-05-05T13:33:54.669Z,2
2023-05-05T13:35:01.594Z,2
2023-05-05T13:36:08.990Z,2
2023-05-05T13:37:15.943Z,2
2023-05-05T13:38:22.993Z,2
2023-05-05T13:39:29.910Z,2
2023-05-05T13:40:36.912Z,2
2023-05-05T13:41:43.838Z,2
2023-05-05T13:42:50.917Z,2
2023-05-05T13:43:57.950Z,2
2023-05-05T13:45:04.892Z,2
2023-05-05T13:46:19.518Z,2
2023-05-05T13:47:20.638Z,2
2023-05-05T13:48:27.406Z,2
2023-05-05T13:49:34.536Z,2
2023-05-05T13:50:41.334Z,1
2023-05-05T13:51:48.351Z,2
2023-05-05T13:52:55.452Z,2
2023-05-05T13:54:02.462Z,2
2023-05-05T13:55:09.469Z,2
2023-05-05T13:56:16.268Z,2
2023-05-05T13:57:24.126Z,2
2023-05-05T13:58:30.962Z,2
2023-05-05T13:59:37.941Z,2
2023-05-05T14:00:44.942Z,2
2023-05-05T14:01:51.848Z,2
2023-05-05T14:02:58.718Z,2
2023-05-05T14:04:06.193Z,1
2023-05-05T14:05:12.740Z,1
2023-05-05T14:06:19.646Z,1
2023-05-05T14:07:26.698Z,1
2023-05-05T14:08:33.600Z,2
2023-05-05T14:09:41.484Z,1
2023-05-05T14:10:49.098Z,2
2023-05-05T14:11:55.238Z,2
2023-05-05T14:13:03.019Z,2
2023-05-05T14:14:13.066Z,1
2023-05-05T14:15:20.137Z,2
2023-05-05T14:16:30.954Z,2
2023-05-05T14:17:37.969Z,2
2023-05-05T14:18:44.791Z,2
2023-05-05T14:19:51.660Z,1
2023-05-05T14:20:58.574Z,2
2023-05-05T14:22:05.454Z,1
2023-05-05T14:23:12.377Z,2
2023-05-05T14:24:19.278Z,1
2023-05-05T14:25:26.287Z,1
2023-05-05T14:26:33.394Z,1
2023-05-05T14:27:40.285Z,1
2023-05-05T14:28:49.051Z,2
2023-05-05T14:29:54.646Z,1
2023-05-05T14:31:01.527Z,1
2023-05-05T14:32:08.545Z,2
2023-05-05T14:33:15.602Z,1
2023-05-05T14:34:22.516Z,1
2023-05-05T14:35:29.380Z,2
2023-05-05T14:36:36.422Z,2
2023-05-05T14:37:43.219Z,1
2023-05-05T14:38:50.086Z,2
2023-05-05T14:39:57.028Z,1
2023-05-05T14:41:04.023Z,1
2023-05-05T14:42:10.941Z,2
2023-05-05T14:43:17.955Z,1
2023-05-05T14:44:24.851Z,1
2023-05-05T14:45:31.996Z,2
2023-05-05T14:46:38.899Z,1
2023-05-05T14:47:45.759Z,2
2023-05-05T14:48:52.771Z,1
2023-05-05T14:49:59.743Z,1
2023-05-05T14:51:07.723Z,1
2023-05-05T14:52:14.619Z,1
2023-05-05T14:53:21.486Z,1
2023-05-05T14:54:29.057Z,1
2023-05-05T14:55:35.404Z,1
2023-05-05T14:56:42.351Z,2
2023-05-05T14:57:49.180Z,1
2023-05-05T14:58:56.052Z,1
2023-05-05T15:00:03.059Z,1
2023-05-05T15:01:10.213Z,1
2023-05-05T15:02:17.080Z,2
2023-05-05T15:03:24.061Z,1
2023-05-05T15:04:30.879Z,1
2023-05-05T15:05:37.699Z,1
2023-05-05T15:06:44.549Z,1
2023-05-05T15:07:51.592Z,2
2023-05-05T15:08:58.328Z,1
2023-05-05T15:10:05.436Z,1
2023-05-05T15:11:12.414Z,1
2023-05-05T15:12:19.331Z,1
2023-05-05T15:13:26.314Z,1
2023-05-05T15:14:33.187Z,1
2023-05-05T15:15:40.145Z,1
2023-05-05T15:16:47.003Z,1
2023-05-05T15:17:54.034Z,1
2023-05-05T15:19:00.935Z,1
2023-05-05T15:20:07.856Z,2
2023-05-05T15:21:15.019Z,4
2023-05-05T15:22:21.964Z,4
2023-05-05T15:23:29.026Z,4
2023-05-05T15:24:36.009Z,2
2023-05-05T15:25:43.010Z,4
2023-05-05T15:26:49.932Z,5
2023-05-05T15:27:56.962Z,2
2023-05-05T15:29:03.946Z,2
2023-05-05T15:30:10.834Z,2
2023-05-05T15:31:17.777Z,2
2023-05-05T15:32:24.835Z,2
2023-05-05T15:33:31.769Z,2
2023-05-05T15:34:38.642Z,2
2023-05-05T15:35:45.542Z,1
2023-05-05T15:36:52.401Z,2
2023-05-05T15:37:59.271Z,2
2023-05-05T15:39:06.282Z,1
2023-05-05T15:40:13.168Z,2
2023-05-05T15:41:20.034Z,1
2023-05-05T15:42:26.979Z,1
2023-05-05T15:43:33.865Z,2
2023-05-05T15:44:40.751Z,1
2023-05-05T15:45:47.659Z,2
2023-05-05T15:46:54.535Z,1
2023-05-05T15:48:01.640Z,2
2023-05-05T15:49:08.646Z,2
2023-05-05T15:50:15.578Z,2
2023-05-05T15:51:22.496Z,2
2023-05-05T15:52:29.423Z,1
2023-05-05T15:53:36.424Z,2
2023-05-05T15:54:43.362Z,2
2023-05-05T15:55:50.160Z,2
2023-05-05T15:56:57.060Z,2
2023-05-05T15:58:04.011Z,2
2023-05-05T15:59:10.883Z,2
2023-05-05T16:00:17.798Z,2
2023-05-05T16:01:24.914Z,2
2023-05-05T16:02:31.847Z,1
2023-05-05T16:03:38.730Z,1
2023-05-05T16:04:45.591Z,2
2023-05-05T16:05:52.536Z,2
2023-05-05T16:06:59.382Z,2
2023-05-05T16:08:06.382Z,2
2023-05-05T16:09:13.273Z,2
2023-05-05T16:10:20.491Z,2
2023-05-05T16:11:27.115Z,2
2023-05-05T16:12:34.063Z,2
2023-05-05T16:13:40.899Z,2
2023-05-05T16:14:47.850Z,2
2023-05-05T16:15:54.857Z,2
2023-05-05T16:17:01.799Z,2
2023-05-05T16:18:08.799Z,2
2023-05-05T16:19:15.686Z,2
2023-05-05T16:20:22.688Z,2
2023-05-05T16:21:29.614Z,2
2023-05-05T16:22:36.720Z,2
2023-05-05T16:23:43.618Z,2
2023-05-05T16:24:50.664Z,2
2023-05-05T16:25:57.589Z,2
2023-05-05T16:27:04.512Z,2
2023-05-05T16:28:11.422Z,2
2023-05-05T16:29:18.618Z,2
2023-05-05T16:30:25.647Z,2
2023-05-05T16:31:32.799Z,2